createdAt,value
2018-09-13T00:02:19.483Z,20.30
2018-09-13T00:04:47.160Z,20.20
2018-09-13T00:07:14.827Z,20.20
2018-09-13T00:09:42.531Z,20.20
2018-09-13T00:12:10.204Z,20.20
2018-09-13T00:14:37.881Z,20.20
2018-09-13T00:17:05.548Z,20.20
2018-09-13T00:19:33.255Z,20.20
2018-09-13T00:22:00.911Z,20.20
2018-09-13T00:24:28.596Z,20.20
2018-09-13T00:26:56.299Z,20.20
2018-09-13T00:29:25.392Z,20.20
2018-09-13T00:31:53.897Z,20.20
2018-09-13T00:34:23.556Z,20.20
2018-09-13T00:36:51.332Z,20.20
2018-09-13T00:39:19.012Z,20.20
2018-09-13T00:41:46.691Z,20.20
2018-09-13T00:44:14.363Z,20.20
2018-09-13T00:46:43.075Z,20.10
2018-09-13T00:49:10.776Z,20.20
2018-09-13T00:51:38.451Z,20.20
2018-09-13T00:54:06.123Z,20.20
2018-09-13T00:56:33.803Z,20.20
2018-09-13T00:59:01.550Z,20.20
2018-09-13T01:01:29.191Z,20.20
2018-09-13T01:03:56.862Z,20.20
2018-09-13T01:06:24.576Z,20.20
2018-09-13T01:08:54.471Z,20.10
2018-09-13T01:11:23.475Z,20.20
2018-09-13T01:13:51.569Z,20.20
2018-09-13T01:16:19.355Z,20.20
2018-09-13T01:18:47.048Z,20.20
2018-09-13T01:21:14.755Z,20.20
2018-09-13T01:23:42.432Z,20.10
2018-09-13T01:26:11.028Z,20.20
2018-09-13T01:28:38.698Z,20.10
2018-09-13T01:31:07.467Z,20.10
2018-09-13T01:33:35.145Z,20.20
2018-09-13T01:36:03.964Z,20.20
2018-09-13T01:38:31.644Z,20.20
2018-09-13T01:40:59.333Z,20.20
2018-09-13T01:43:27.073Z,20.20
2018-09-13T01:45:55.486Z,20.10
2018-09-13T01:48:24.069Z,20.20
2018-09-13T01:50:53.221Z,20.10
2018-09-13T01:53:23.187Z,20.20
2018-09-13T01:55:51.504Z,20.20
2018-09-13T01:58:20.176Z,20.10
2018-09-13T02:00:47.864Z,20.10
2018-09-13T02:03:15.533Z,20.10
2018-09-13T02:05:43.336Z,20.10
2018-09-13T02:08:11.968Z,20.10
2018-09-13T02:10:40.683Z,20.20
2018-09-13T02:13:09.433Z,20.20
2018-09-13T02:15:38.151Z,20.10
2018-09-13T02:18:06.983Z,20.20
2018-09-13T02:20:35.555Z,20.10
2018-09-13T02:23:04.131Z,20.10
2018-09-13T02:25:32.803Z,20.20
2018-09-13T02:28:01.506Z,20.10
2018-09-13T02:30:30.234Z,20.10
2018-09-13T02:32:58.954Z,20.10
2018-09-13T02:35:27.712Z,20.10
2018-09-13T02:37:56.232Z,20.10
2018-09-13T02:40:24.831Z,20.10
2018-09-13T02:42:54.716Z,20.10
2018-09-13T02:45:23.460Z,20.10
2018-09-13T02:47:53.571Z,20.10
2018-09-13T02:50:23.860Z,20.10
2018-09-13T02:52:53.471Z,20.10
2018-09-13T02:55:23.835Z,20.10
2018-09-13T02:57:54.012Z,20.10
2018-09-13T03:00:24.624Z,20.10
2018-09-13T03:02:54.357Z,20.10
2018-09-13T03:05:24.561Z,20.10
2018-09-13T03:07:54.495Z,20.10
2018-09-13T03:10:24.192Z,20.10
2018-09-13T03:12:54.656Z,20.10
2018-09-13T03:15:23.423Z,20.10
2018-09-13T03:17:51.861Z,20.10
2018-09-13T03:20:19.543Z,20.10
2018-09-13T03:22:48.151Z,20.10
2018-09-13T03:25:16.823Z,20.10
2018-09-13T03:27:45.578Z,20.10
2018-09-13T03:30:14.772Z,20.10
2018-09-13T03:32:43.456Z,20.10
2018-09-13T03:35:12.145Z,20.10
2018-09-13T03:37:39.808Z,20.10
2018-09-13T03:40:08.505Z,20.10
2018-09-13T03:42:36.829Z,20.10
2018-09-13T03:45:05.530Z,20.10
2018-09-13T03:47:34.244Z,20.10
2018-09-13T03:50:02.929Z,20.10
2018-09-13T03:52:31.512Z,20.10
2018-09-13T03:55:00.192Z,20.10
2018-09-13T03:57:27.878Z,20.10
2018-09-13T03:59:56.585Z,20.10
2018-09-13T04:02:25.326Z,20.20
2018-09-13T04:04:54.307Z,20.30
2018-09-13T04:07:23.067Z,20.40
2018-09-13T04:09:51.572Z,20.50
2018-09-13T04:12:19.264Z,20.50
2018-09-13T04:14:47.826Z,20.60
2018-09-13T04:17:16.427Z,20.60
2018-09-13T04:19:45.164Z,20.60
2018-09-13T04:22:13.554Z,20.60
2018-09-13T04:24:41.527Z,20.70
2018-09-13T04:27:09.455Z,20.70
2018-09-13T04:29:37.139Z,20.70
2018-09-13T04:32:05.092Z,20.70
2018-09-13T04:34:32.774Z,20.70
2018-09-13T04:37:01.331Z,20.60
2018-09-13T04:39:29.016Z,20.70
2018-09-13T04:41:56.735Z,20.60
2018-09-13T04:44:26.459Z,20.70
2018-09-13T04:46:54.842Z,20.70
2018-09-13T04:49:25.352Z,20.70
2018-09-13T04:51:54.329Z,20.70
2018-09-13T04:54:23.427Z,20.60
2018-09-13T04:56:54.037Z,20.60
2018-09-13T04:59:24.208Z,20.60
2018-09-13T05:01:54.999Z,20.60
2018-09-13T05:04:24.429Z,20.60
2018-09-13T05:06:55.048Z,20.60
2018-09-13T05:09:24.228Z,20.60
2018-09-13T05:11:53.735Z,20.60
2018-09-13T05:14:21.989Z,20.60
2018-09-13T05:16:49.721Z,20.60
2018-09-13T05:19:17.381Z,20.60
2018-09-13T05:21:45.231Z,20.60
2018-09-13T05:24:12.938Z,20.60
2018-09-13T05:26:40.802Z,20.60
2018-09-13T05:29:08.484Z,20.60
2018-09-13T05:31:36.219Z,20.60
2018-09-13T05:34:03.892Z,20.50
2018-09-13T05:36:31.595Z,20.50
2018-09-13T05:38:59.341Z,20.50
2018-09-13T05:41:27.035Z,20.50
2018-09-13T05:43:54.748Z,20.50
2018-09-13T05:46:24.459Z,20.50
2018-09-13T05:48:53.338Z,20.50
2018-09-13T05:51:21.527Z,20.50
2018-09-13T05:53:49.200Z,20.50
2018-09-13T05:56:16.883Z,20.50
2018-09-13T05:58:44.560Z,20.50
2018-09-13T06:01:12.262Z,20.50
2018-09-13T06:03:39.940Z,20.50
2018-09-13T06:06:08.612Z,20.50
2018-09-13T06:08:36.287Z,20.50
2018-09-13T06:11:03.992Z,20.50
2018-09-13T06:13:31.743Z,20.50
2018-09-13T06:16:00.159Z,20.50
2018-09-13T06:18:27.874Z,20.50
2018-09-13T06:20:55.657Z,20.50
2018-09-13T06:23:24.835Z,20.50
2018-09-13T06:25:55.887Z,20.40
2018-09-13T06:28:24.626Z,20.40
2018-09-13T06:30:53.817Z,20.40
2018-09-13T06:33:24.700Z,20.40
2018-09-13T06:35:54.160Z,20.40
2018-09-13T06:38:24.964Z,20.40
2018-09-13T06:40:53.364Z,20.40
2018-09-13T06:43:23.209Z,20.40
2018-09-13T06:45:51.860Z,20.30
2018-09-13T06:48:20.542Z,20.40
2018-09-13T06:50:48.240Z,20.40
2018-09-13T06:53:16.943Z,20.40
2018-09-13T06:55:44.624Z,20.40
2018-09-13T06:58:13.392Z,20.40
2018-09-13T07:00:41.059Z,20.30
2018-09-13T07:03:09.404Z,20.30
2018-09-13T07:05:37.099Z,20.30
2018-09-13T07:08:05.667Z,20.30
2018-09-13T07:10:33.684Z,20.30
2018-09-13T07:13:02.388Z,20.30
2018-09-13T07:15:31.187Z,20.30
2018-09-13T07:18:00.023Z,20.30
2018-09-13T07:20:27.949Z,20.30
2018-09-13T07:22:56.528Z,20.30
2018-09-13T07:25:25.114Z,20.30
2018-09-13T07:27:54.192Z,20.40
2018-09-13T07:30:23.924Z,20.30
2018-09-13T07:32:53.470Z,20.30
2018-09-13T07:35:22.953Z,20.30
2018-09-13T07:37:50.707Z,20.30
2018-09-13T07:40:19.380Z,20.30
2018-09-13T07:42:47.136Z,20.30
2018-09-13T07:45:15.679Z,20.30
2018-09-13T07:47:43.352Z,20.30
2018-09-13T07:50:12.031Z,20.30
2018-09-13T07:52:39.782Z,20.30
2018-09-13T07:55:08.520Z,20.30
2018-09-13T07:57:37.092Z,20.30
2018-09-13T08:00:06.300Z,20.30
2018-09-13T08:02:35.069Z,20.30
2018-09-13T08:05:03.787Z,20.30
2018-09-13T08:07:32.472Z,20.30
2018-09-13T08:10:00.240Z,20.20
2018-09-13T08:12:29.004Z,20.30
2018-09-13T08:14:57.715Z,20.30
2018-09-13T08:17:26.409Z,20.20
2018-09-13T08:19:55.140Z,20.20
2018-09-13T08:22:24.911Z,20.20
2018-09-13T08:24:54.567Z,20.20
2018-09-13T08:27:24.403Z,20.20
2018-09-13T08:29:54.700Z,20.20
2018-09-13T08:32:24.652Z,20.20
2018-09-13T08:34:54.907Z,20.20
2018-09-13T08:37:24.109Z,20.20
2018-09-13T08:39:54.899Z,20.20
2018-09-13T08:42:24.685Z,20.20
2018-09-13T08:44:54.432Z,20.20
2018-09-13T08:47:23.472Z,20.20
2018-09-13T08:49:53.311Z,20.20
2018-09-13T08:52:23.848Z,20.30
2018-09-13T08:54:54.996Z,20.40
2018-09-13T08:57:24.804Z,20.50
2018-09-13T08:59:54.820Z,20.60
2018-09-13T09:02:24.564Z,20.70
2018-09-13T09:04:54.472Z,20.70
2018-09-13T09:07:24.008Z,20.70
2018-09-13T09:09:54.461Z,20.80
2018-09-13T09:12:23.370Z,20.70
2018-09-13T09:14:53.731Z,20.70
2018-09-13T09:17:23.688Z,20.70
2018-09-13T09:19:53.118Z,20.70
2018-09-13T09:22:20.817Z,20.70
2018-09-13T09:24:48.496Z,20.70
2018-09-13T09:27:17.409Z,20.70
2018-09-13T09:29:46.087Z,20.70
2018-09-13T09:32:14.648Z,20.70
2018-09-13T09:34:43.289Z,20.70
2018-09-13T09:37:11.965Z,20.70
2018-09-13T09:39:40.711Z,20.70
2018-09-13T09:42:08.391Z,20.70
2018-09-13T09:44:36.066Z,20.70
2018-09-13T09:47:03.772Z,20.60
2018-09-13T09:49:32.363Z,20.70
2018-09-13T09:52:00.574Z,20.60
2018-09-13T09:54:27.885Z,20.70
2018-09-13T09:56:55.584Z,20.70
2018-09-13T09:59:24.856Z,20.70
2018-09-13T10:01:57.971Z,20.70
2018-09-13T10:04:25.706Z,20.70
2018-09-13T10:06:54.424Z,20.70
2018-09-13T10:09:23.555Z,20.60
2018-09-13T10:11:51.693Z,20.60
2018-09-13T10:14:20.251Z,20.60
2018-09-13T10:16:53.537Z,20.60
2018-09-13T10:19:26.688Z,20.60
2018-09-13T10:22:01.925Z,20.60
2018-09-13T10:24:36.037Z,20.60
2018-09-13T10:27:09.231Z,20.60
2018-09-13T10:29:42.313Z,20.50
2018-09-13T10:32:15.464Z,20.50
2018-09-13T10:34:48.576Z,20.50
2018-09-13T10:37:22.763Z,20.50
2018-09-13T10:39:57.018Z,20.50
2018-09-13T10:42:31.182Z,20.60
2018-09-13T10:45:05.344Z,20.50
2018-09-13T10:47:42.164Z,20.50
2018-09-13T10:50:13.505Z,20.50
2018-09-13T10:52:45.117Z,20.50
2018-09-13T10:55:12.736Z,20.50
2018-09-13T10:57:41.801Z,20.50
2018-09-13T11:00:10.637Z,20.50
2018-09-13T11:02:38.379Z,20.50
2018-09-13T11:05:06.051Z,20.50
2018-09-13T11:07:33.727Z,20.50
2018-09-13T11:10:02.420Z,20.50
2018-09-13T11:12:33.820Z,20.50
2018-09-13T11:15:06.989Z,20.50
2018-09-13T11:17:34.661Z,20.50
2018-09-13T11:20:02.344Z,20.50
2018-09-13T11:22:30.284Z,20.50
2018-09-13T11:24:58.856Z,20.50
2018-09-13T11:27:27.563Z,20.50
2018-09-13T11:29:56.064Z,20.50
2018-09-13T11:32:24.630Z,20.50
2018-09-13T11:34:53.985Z,20.50
2018-09-13T11:37:21.849Z,20.50
2018-09-13T11:39:49.680Z,20.50
2018-09-13T11:42:18.203Z,20.50
2018-09-13T11:44:46.784Z,20.50
2018-09-13T11:47:15.459Z,20.50
2018-09-13T11:49:44.175Z,20.50
2018-09-13T11:52:12.865Z,20.50
2018-09-13T11:54:40.537Z,20.40
2018-09-13T11:57:08.221Z,20.50
2018-09-13T11:59:35.901Z,20.40
2018-09-13T12:02:03.614Z,20.40
2018-09-13T12:04:31.321Z,20.50
2018-09-13T12:06:59.015Z,20.50
2018-09-13T12:09:26.979Z,20.40
2018-09-13T12:11:56.648Z,20.40
2018-09-13T12:14:24.420Z,20.40
2018-09-13T12:16:54.875Z,20.40
2018-09-13T12:19:23.184Z,20.40
2018-09-13T12:21:53.659Z,20.40
2018-09-13T12:24:23.728Z,20.40
2018-09-13T12:26:53.736Z,20.40
2018-09-13T12:29:24.080Z,20.40
2018-09-13T12:31:54.112Z,20.40
2018-09-13T12:34:25.021Z,20.40
2018-09-13T12:36:54.540Z,20.40
2018-09-13T12:39:27.392Z,20.40
2018-09-13T12:41:55.060Z,20.40
2018-09-13T12:44:24.621Z,20.30
2018-09-13T12:46:54.944Z,20.30
2018-09-13T12:49:25.471Z,20.30
2018-09-13T12:51:55.020Z,20.30
2018-09-13T12:54:25.104Z,20.30
2018-09-13T12:56:55.331Z,20.30
2018-09-13T12:59:24.995Z,20.30
2018-09-13T13:01:54.740Z,20.30
2018-09-13T13:04:23.906Z,20.30
2018-09-13T13:06:54.185Z,20.30
2018-09-13T13:09:24.497Z,20.30
2018-09-13T13:11:54.014Z,20.30
2018-09-13T13:14:22.552Z,20.30
2018-09-13T13:16:51.883Z,20.30
2018-09-13T13:19:20.468Z,20.30
2018-09-13T13:21:48.243Z,20.30
2018-09-13T13:24:16.847Z,20.30
2018-09-13T13:26:45.576Z,20.30
2018-09-13T13:29:13.332Z,20.30
2018-09-13T13:31:41.895Z,20.30
2018-09-13T13:34:10.471Z,20.30
2018-09-13T13:36:39.229Z,20.30
2018-09-13T13:39:07.292Z,20.30
2018-09-13T13:41:35.035Z,20.30
2018-09-13T13:44:03.795Z,20.30
2018-09-13T13:46:31.557Z,20.20
2018-09-13T13:49:00.157Z,20.30
2018-09-13T13:51:27.941Z,20.30
2018-09-13T13:53:56.600Z,20.20
2018-09-13T13:56:25.580Z,20.30
2018-09-13T13:58:55.184Z,20.20
2018-09-13T14:01:24.032Z,20.30
2018-09-13T14:03:54.425Z,20.20
2018-09-13T14:06:24.895Z,20.30
2018-09-13T14:08:54.289Z,20.30
2018-09-13T14:11:22.905Z,20.30
2018-09-13T14:13:52.966Z,20.30
2018-09-13T14:16:22.490Z,20.20
2018-09-13T14:18:51.961Z,20.20
2018-09-13T14:21:20.624Z,20.30
2018-09-13T14:23:48.341Z,20.20
2018-09-13T14:26:16.984Z,20.30
2018-09-13T14:28:45.420Z,20.30
2018-09-13T14:31:14.121Z,20.30
2018-09-13T14:33:43.000Z,20.20
2018-09-13T14:36:10.837Z,20.20
2018-09-13T14:38:39.548Z,20.30
2018-09-13T14:41:08.368Z,20.20
2018-09-13T14:43:36.952Z,20.30
2018-09-13T14:46:05.840Z,20.20
2018-09-13T14:48:34.424Z,20.20
2018-09-13T14:51:02.986Z,20.20
2018-09-13T14:53:31.707Z,20.20
2018-09-13T14:55:59.807Z,20.30
2018-09-13T14:58:28.545Z,20.20
2018-09-13T15:00:56.236Z,20.20
2018-09-13T15:03:24.792Z,20.30
2018-09-13T15:05:53.823Z,20.20
2018-09-13T15:08:22.908Z,20.20
2018-09-13T15:10:50.620Z,20.30
2018-09-13T15:13:18.304Z,20.30
2018-09-13T15:15:46.884Z,20.30
2018-09-13T15:18:15.472Z,20.30
2018-09-13T15:20:43.171Z,20.30
2018-09-13T15:23:10.841Z,20.30
2018-09-13T15:25:38.512Z,20.30
2018-09-13T15:28:06.197Z,20.30
2018-09-13T15:30:34.303Z,20.30
2018-09-13T15:33:04.156Z,20.30
2018-09-13T15:35:32.877Z,20.30
2018-09-13T15:38:01.539Z,20.30
2018-09-13T15:40:29.221Z,20.20
2018-09-13T15:42:56.915Z,20.30
2018-09-13T15:45:26.393Z,20.20
2018-09-13T15:47:55.251Z,20.20
2018-09-13T15:50:24.022Z,20.30
2018-09-13T15:52:52.847Z,20.20
2018-09-13T15:55:20.569Z,20.20
2018-09-13T15:57:49.252Z,20.30
2018-09-13T16:00:16.944Z,20.20
2018-09-13T16:02:45.593Z,20.30
2018-09-13T16:05:13.296Z,20.30
2018-09-13T16:07:40.984Z,20.20
2018-09-13T16:10:08.676Z,20.30
2018-09-13T16:12:36.469Z,20.30
2018-09-13T16:15:04.102Z,20.30
2018-09-13T16:17:31.767Z,20.30
2018-09-13T16:20:00.515Z,20.30
2018-09-13T16:22:29.176Z,20.30
2018-09-13T16:24:56.961Z,20.30
2018-09-13T16:27:24.676Z,20.30
2018-09-13T16:29:55.596Z,20.30
2018-09-13T16:32:24.892Z,20.30
2018-09-13T16:34:54.416Z,20.30
2018-09-13T16:37:29.887Z,20.20
2018-09-13T16:40:04.137Z,20.30
2018-09-13T16:42:42.681Z,20.30
2018-09-13T16:45:10.954Z,20.30
2018-09-13T16:47:45.195Z,20.20
2018-09-13T16:50:12.866Z,20.20
2018-09-13T16:52:40.545Z,20.20
2018-09-13T16:55:08.215Z,20.20
2018-09-13T16:57:35.990Z,20.20
2018-09-13T17:00:03.743Z,20.20
2018-09-13T17:02:32.611Z,20.30
2018-09-13T17:05:00.270Z,20.20
2018-09-13T17:07:27.957Z,20.20
2018-09-13T17:09:55.676Z,20.20
2018-09-13T17:12:24.976Z,20.30
2018-09-13T17:14:55.387Z,20.30
2018-09-13T17:17:24.974Z,20.20
2018-09-13T17:19:53.624Z,20.20
2018-09-13T17:22:22.377Z,20.20
2018-09-13T17:24:50.101Z,20.30
2018-09-13T17:27:18.133Z,20.30
2018-09-13T17:29:46.016Z,20.20
2018-09-13T17:32:13.752Z,20.20
2018-09-13T17:34:42.432Z,20.30
2018-09-13T17:37:11.137Z,20.20
2018-09-13T17:39:40.105Z,20.20
2018-09-13T17:42:07.896Z,20.20
2018-09-13T17:44:35.648Z,20.20
2018-09-13T17:47:03.392Z,20.20
2018-09-13T17:49:31.084Z,20.20
2018-09-13T17:51:58.793Z,20.20
2018-09-13T17:54:27.704Z,20.30
2018-09-13T17:56:55.389Z,20.30
2018-09-13T17:59:25.035Z,20.20
2018-09-13T18:01:53.624Z,20.30
2018-09-13T18:04:22.021Z,20.20
2018-09-13T18:06:49.687Z,20.30
2018-09-13T18:09:17.385Z,20.30
2018-09-13T18:11:45.970Z,20.30
2018-09-13T18:14:13.648Z,20.30
2018-09-13T18:16:41.319Z,20.30
2018-09-13T18:19:10.047Z,20.20
2018-09-13T18:21:37.745Z,20.20
2018-09-13T18:24:05.517Z,20.20
2018-09-13T18:26:34.127Z,20.20
2018-09-13T18:29:01.859Z,20.20
2018-09-13T18:31:29.556Z,20.20
2018-09-13T18:33:58.312Z,20.20
2018-09-13T18:36:27.019Z,20.20
2018-09-13T18:38:55.771Z,20.20
2018-09-13T18:41:26.044Z,20.20
2018-09-13T18:43:54.616Z,20.20
2018-09-13T18:46:24.248Z,20.20
2018-09-13T18:48:52.989Z,20.20
2018-09-13T18:51:20.668Z,20.20
2018-09-13T18:53:48.396Z,20.30
2018-09-13T18:56:16.976Z,20.50
2018-09-13T18:58:44.641Z,20.50
2018-09-13T19:01:13.332Z,20.60
2018-09-13T19:03:42.013Z,20.70
2018-09-13T19:06:09.732Z,20.70
2018-09-13T19:08:37.413Z,20.80
2018-09-13T19:11:05.317Z,20.80
2018-09-13T19:13:34.024Z,20.90
2018-09-13T19:16:02.794Z,20.90
2018-09-13T19:18:30.580Z,20.90
2018-09-13T19:20:59.246Z,20.90
2018-09-13T19:23:27.096Z,20.90
2018-09-13T19:25:56.350Z,20.90
2018-09-13T19:28:25.117Z,20.90
2018-09-13T19:30:53.532Z,20.80
2018-09-13T19:33:21.195Z,20.80
2018-09-13T19:35:49.729Z,20.80
2018-09-13T19:38:17.408Z,20.80
2018-09-13T19:40:45.328Z,20.80
2018-09-13T19:43:13.028Z,20.80
2018-09-13T19:45:41.752Z,20.80
2018-09-13T19:48:09.419Z,20.80
2018-09-13T19:50:37.238Z,20.80
2018-09-13T19:53:04.784Z,20.80
2018-09-13T19:55:32.444Z,20.80
2018-09-13T19:58:00.920Z,20.80
2018-09-13T20:00:28.580Z,20.80
2018-09-13T20:02:56.285Z,20.80
2018-09-13T20:05:24.526Z,20.80
2018-09-13T20:07:52.912Z,20.80
2018-09-13T20:10:23.049Z,20.80
2018-09-13T20:12:50.836Z,20.80
2018-09-13T20:15:19.001Z,20.80
2018-09-13T20:17:46.717Z,20.80
2018-09-13T20:20:14.409Z,20.80
2018-09-13T20:22:42.133Z,20.70
2018-09-13T20:25:10.880Z,20.70
2018-09-13T20:27:38.600Z,20.70
2018-09-13T20:30:06.280Z,20.70
2018-09-13T20:32:34.030Z,20.70
2018-09-13T20:35:01.740Z,20.70
2018-09-13T20:37:29.426Z,20.70
2018-09-13T20:39:57.106Z,20.60
2018-09-13T20:42:24.821Z,20.60
2018-09-13T20:44:55.968Z,20.60
2018-09-13T20:47:24.923Z,20.60
2018-09-13T20:49:53.342Z,20.60
2018-09-13T20:52:21.012Z,20.60
2018-09-13T20:54:48.771Z,20.60
2018-09-13T20:57:16.484Z,20.60
2018-09-13T20:59:45.229Z,20.60
2018-09-13T21:02:12.950Z,20.60
2018-09-13T21:04:40.653Z,20.50
2018-09-13T21:07:08.336Z,20.50
2018-09-13T21:09:36.596Z,20.50
2018-09-13T21:12:04.260Z,20.50
2018-09-13T21:14:32.040Z,20.50
2018-09-13T21:17:00.117Z,20.50
2018-09-13T21:19:27.913Z,20.50
2018-09-13T21:21:55.666Z,20.50
2018-09-13T21:24:24.399Z,20.50
2018-09-13T21:26:54.392Z,20.50
2018-09-13T21:29:22.248Z,20.50
2018-09-13T21:31:50.036Z,20.50
2018-09-13T21:34:18.747Z,20.50
2018-09-13T21:36:46.559Z,20.50
2018-09-13T21:39:14.244Z,20.50
2018-09-13T21:41:41.928Z,20.50
2018-09-13T21:44:09.668Z,20.50
2018-09-13T21:46:37.343Z,20.50
2018-09-13T21:49:05.021Z,20.50
2018-09-13T21:51:32.893Z,20.50
2018-09-13T21:54:00.561Z,20.50
2018-09-13T21:56:28.236Z,20.50
2018-09-13T21:58:56.979Z,20.50
2018-09-13T22:01:24.672Z,20.50
2018-09-13T22:03:54.277Z,20.50
2018-09-13T22:06:23.191Z,20.50
2018-09-13T22:08:54.089Z,20.50
2018-09-13T22:11:22.499Z,20.50
2018-09-13T22:13:51.027Z,20.50
2018-09-13T22:16:19.708Z,20.50
2018-09-13T22:18:48.263Z,20.50
2018-09-13T22:21:15.949Z,20.50
2018-09-13T22:23:43.612Z,20.40
2018-09-13T22:26:12.312Z,20.40
2018-09-13T22:28:40.019Z,20.40
2018-09-13T22:31:08.152Z,20.40
2018-09-13T22:33:36.883Z,20.50
2018-09-13T22:36:04.613Z,20.40
2018-09-13T22:38:33.320Z,20.40
2018-09-13T22:41:00.992Z,20.40
2018-09-13T22:43:32.989Z,20.40
2018-09-13T22:46:01.684Z,20.40
2018-09-13T22:48:30.351Z,20.40
2018-09-13T22:50:59.221Z,20.40
2018-09-13T22:53:27.808Z,20.40
2018-09-13T22:55:55.709Z,20.40
2018-09-13T22:58:24.794Z,20.40
2018-09-13T23:00:56.582Z,20.40
2018-09-13T23:03:25.201Z,20.40
2018-09-13T23:05:54.001Z,20.40
2018-09-13T23:08:24.263Z,20.40
2018-09-13T23:10:55.375Z,20.40
2018-09-13T23:13:23.989Z,20.40
2018-09-13T23:15:53.675Z,20.40
2018-09-13T23:18:21.376Z,20.40
2018-09-13T23:20:50.191Z,20.40
2018-09-13T23:23:19.057Z,20.40
2018-09-13T23:25:46.744Z,20.40
2018-09-13T23:28:15.475Z,20.40
2018-09-13T23:30:44.173Z,20.40
2018-09-13T23:33:12.204Z,20.40
2018-09-13T23:35:39.919Z,20.40
2018-09-13T23:38:08.644Z,20.40
2018-09-13T23:40:36.388Z,20.40
2018-09-13T23:43:04.022Z,20.30
2018-09-13T23:45:32.603Z,20.30
2018-09-13T23:48:01.196Z,20.30
2018-09-13T23:50:29.915Z,20.30
2018-09-13T23:52:58.582Z,20.30
2018-09-13T23:55:26.452Z,20.30
2018-09-13T23:57:54.991Z,20.30
